createdAt,value
2022-11-20T00:01:10.132Z,3.30
2022-11-20T00:03:38.152Z,3.30
2022-11-20T00:06:07.817Z,3.20
2022-11-20T00:08:35.783Z,3.20
2022-11-20T00:11:06.107Z,3.30
2022-11-20T00:13:34.208Z,3.20
2022-11-20T00:16:05.355Z,3.20
2022-11-20T00:18:34.600Z,3.20
2022-11-20T00:21:04.015Z,3.30
2022-11-20T00:23:32.259Z,3.30
2022-11-20T00:26:05.452Z,3.30
2022-11-20T00:28:33.569Z,3.30
2022-11-20T00:31:07.981Z,3.30
2022-11-20T00:33:35.947Z,3.30
2022-11-20T00:36:04.749Z,3.40
2022-11-20T00:38:33.034Z,3.40
2022-11-20T00:41:02.186Z,3.40
2022-11-20T00:43:30.524Z,3.30
2022-11-20T00:45:59.619Z,3.40
2022-11-20T00:48:29.117Z,3.40
2022-11-20T00:50:57.855Z,3.30
2022-11-20T00:53:26.494Z,3.40
2022-11-20T00:55:58.653Z,3.40
2022-11-20T00:58:30.537Z,3.40
2022-11-20T01:01:03.072Z,3.40
2022-11-20T01:03:34.933Z,3.40
2022-11-20T01:06:03.856Z,3.40
2022-11-20T01:08:33.484Z,3.40
2022-11-20T01:11:03.019Z,3.40
2022-11-20T01:13:41.909Z,3.40
2022-11-20T01:16:11.943Z,3.40
2022-11-20T01:18:42.718Z,3.40
2022-11-20T01:21:12.812Z,3.40
2022-11-20T01:23:43.095Z,3.40
2022-11-20T01:26:12.836Z,3.40
2022-11-20T01:28:41.249Z,3.50
2022-11-20T01:31:15.809Z,3.50
2022-11-20T01:33:45.824Z,3.50
2022-11-20T01:36:14.974Z,3.50
2022-11-20T01:38:43.389Z,3.40
2022-11-20T01:41:12.047Z,3.40
2022-11-20T01:43:38.934Z,3.40
2022-11-20T01:46:17.463Z,3.40
2022-11-20T01:48:52.887Z,3.40
2022-11-20T01:51:28.605Z,3.40
2022-11-20T01:53:59.458Z,3.50
2022-11-20T01:56:29.549Z,3.50
2022-11-20T01:59:01.864Z,3.50
2022-11-20T02:01:29.912Z,3.50
2022-11-20T02:04:01.047Z,3.50
2022-11-20T02:06:33.291Z,3.50
2022-11-20T02:09:01.147Z,3.50
2022-11-20T02:11:31.640Z,3.50
2022-11-20T02:13:59.665Z,3.50
2022-11-20T02:16:29.744Z,3.50
2022-11-20T02:19:01.550Z,3.60
2022-11-20T02:21:38.055Z,3.50
2022-11-20T02:24:11.290Z,3.50
2022-11-20T02:26:48.250Z,3.50
2022-11-20T02:29:19.214Z,3.50
2022-11-20T02:31:47.672Z,3.50
2022-11-20T02:34:15.563Z,3.60
2022-11-20T02:36:44.627Z,3.50
2022-11-20T02:39:17.904Z,3.50
2022-11-20T02:41:46.020Z,3.50
2022-11-20T02:44:13.976Z,3.50
2022-11-20T02:46:41.848Z,3.70
2022-11-20T02:49:09.832Z,3.70
2022-11-20T02:51:37.739Z,3.60
2022-11-20T02:54:05.976Z,3.60
2022-11-20T02:56:35.200Z,3.60
2022-11-20T02:59:03.048Z,3.40
2022-11-20T03:01:30.982Z,3.50
2022-11-20T03:03:58.916Z,3.50
2022-11-20T03:06:26.860Z,3.60
2022-11-20T03:08:54.734Z,3.60
2022-11-20T03:11:22.743Z,3.70
2022-11-20T03:13:51.984Z,3.60
2022-11-20T03:16:22.137Z,3.60
2022-11-20T03:18:50.325Z,3.50
2022-11-20T03:21:18.680Z,3.50
2022-11-20T03:23:47.300Z,3.50
2022-11-20T03:26:18.273Z,3.50
2022-11-20T03:28:49.977Z,3.50
2022-11-20T03:31:21.244Z,3.50
2022-11-20T03:33:49.469Z,3.60
2022-11-20T03:36:18.872Z,3.60
2022-11-20T03:38:47.120Z,3.60
2022-11-20T03:41:18.256Z,3.60
2022-11-20T03:43:50.095Z,3.70
2022-11-20T03:46:19.471Z,3.70
2022-11-20T03:48:57.809Z,3.80
2022-11-20T03:51:27.200Z,3.80
2022-11-20T03:53:56.941Z,3.70
2022-11-20T03:56:26.782Z,3.60
2022-11-20T03:58:54.964Z,3.60
2022-11-20T04:01:26.531Z,3.60
2022-11-20T04:03:55.813Z,3.60
2022-11-20T04:06:25.113Z,3.60
2022-11-20T04:08:54.128Z,3.60
2022-11-20T04:11:24.632Z,3.50
2022-11-20T04:13:54.469Z,3.60
2022-11-20T04:16:25.275Z,3.50
2022-11-20T04:18:54.929Z,3.50
2022-11-20T04:21:23.550Z,3.50
2022-11-20T04:23:51.780Z,3.50
2022-11-20T04:26:19.669Z,3.60
2022-11-20T04:28:47.584Z,3.60
2022-11-20T04:31:16.725Z,3.60
2022-11-20T04:33:46.295Z,3.60
2022-11-20T04:36:16.435Z,3.60
2022-11-20T04:38:44.960Z,3.60
2022-11-20T04:41:16.979Z,3.70
2022-11-20T04:43:49.366Z,3.60
2022-11-20T04:46:17.993Z,3.70
2022-11-20T04:48:47.497Z,3.70
2022-11-20T04:51:15.597Z,3.60
2022-11-20T04:53:43.965Z,3.70
2022-11-20T04:56:13.713Z,3.60
2022-11-20T04:58:42.351Z,3.60
2022-11-20T05:01:12.485Z,3.60
2022-11-20T05:03:42.462Z,3.60
2022-11-20T05:06:13.572Z,3.60
2022-11-20T05:08:41.800Z,3.70
2022-11-20T05:11:11.538Z,3.70
2022-11-20T05:13:39.967Z,3.70
2022-11-20T05:16:09.989Z,3.70
2022-11-20T05:18:38.974Z,3.70
2022-11-20T05:21:07.983Z,3.90
2022-11-20T05:23:38.151Z,4.00
2022-11-20T05:26:07.556Z,4.00
2022-11-20T05:28:35.933Z,3.90
2022-11-20T05:31:08.409Z,3.80
2022-11-20T05:33:36.807Z,3.80
2022-11-20T05:36:05.404Z,3.80
2022-11-20T05:38:33.617Z,3.80
2022-11-20T05:41:10.743Z,3.80
2022-11-20T05:43:40.015Z,3.70
2022-11-20T05:46:09.510Z,3.80
2022-11-20T05:48:39.119Z,3.80
2022-11-20T05:51:09.543Z,3.80
2022-11-20T05:53:38.013Z,3.80
2022-11-20T05:56:08.193Z,3.80
2022-11-20T05:58:38.789Z,3.80
2022-11-20T06:01:09.520Z,3.70
2022-11-20T06:03:37.636Z,3.70
2022-11-20T06:06:07.195Z,3.70
2022-11-20T06:08:35.095Z,3.70
2022-11-20T06:11:06.558Z,3.70
2022-11-20T06:13:37.948Z,3.70
2022-11-20T06:16:10.936Z,3.70
2022-11-20T06:18:39.306Z,3.80
2022-11-20T06:21:09.016Z,3.80
2022-11-20T06:23:38.201Z,3.80
2022-11-20T06:26:07.426Z,3.80
2022-11-20T06:28:35.486Z,3.80
2022-11-20T06:31:04.096Z,3.80
2022-11-20T06:33:33.675Z,3.90
2022-11-20T06:36:07.472Z,3.80
2022-11-20T06:38:38.676Z,3.90
2022-11-20T06:41:07.327Z,3.90
2022-11-20T06:43:35.343Z,3.80
2022-11-20T06:46:03.283Z,3.90
2022-11-20T06:48:32.871Z,3.90
2022-11-20T06:51:01.938Z,3.90
2022-11-20T06:53:29.803Z,3.90
2022-11-20T06:55:59.496Z,3.90
2022-11-20T06:58:29.787Z,3.90
2022-11-20T07:01:01.022Z,3.90
2022-11-20T07:03:29.298Z,3.90
2022-11-20T07:05:59.005Z,4.00
2022-11-20T07:08:27.294Z,4.00
2022-11-20T07:10:58.828Z,4.00
2022-11-20T07:13:26.814Z,4.00
2022-11-20T07:15:54.896Z,4.00
2022-11-20T07:18:22.821Z,4.00
2022-11-20T07:20:50.796Z,4.00
2022-11-20T07:23:20.105Z,4.00
2022-11-20T07:25:47.976Z,4.00
2022-11-20T07:28:16.552Z,4.00
2022-11-20T07:30:44.443Z,4.10
2022-11-20T07:33:12.396Z,4.10
2022-11-20T07:35:40.307Z,4.10
2022-11-20T07:38:09.030Z,4.10
2022-11-20T07:40:38.349Z,4.20
2022-11-20T07:43:09.122Z,4.10
2022-11-20T07:45:37.188Z,4.20
2022-11-20T07:48:05.602Z,4.20
2022-11-20T07:50:33.468Z,4.20
2022-11-20T07:53:05.578Z,4.20
2022-11-20T07:55:33.919Z,4.20
2022-11-20T07:58:03.125Z,4.30
2022-11-20T08:00:31.101Z,4.30
2022-11-20T08:02:59.623Z,4.30
2022-11-20T08:05:27.520Z,4.30
2022-11-20T08:07:55.402Z,4.40
2022-11-20T08:10:23.354Z,4.40
2022-11-20T08:13:10.502Z,4.40
2022-11-20T08:15:41.523Z,4.40
2022-11-20T08:20:59.539Z,4.40
2022-11-20T08:23:27.388Z,4.40
2022-11-20T08:25:55.341Z,4.40
2022-11-20T08:28:23.210Z,4.40
2022-11-20T08:30:52.440Z,4.30
2022-11-20T08:33:20.466Z,4.40
2022-11-20T08:35:48.317Z,4.40
2022-11-20T08:38:16.616Z,4.40
2022-11-20T08:41:06.110Z,4.40
2022-11-20T08:43:34.570Z,4.40
2022-11-20T08:46:03.873Z,4.40
2022-11-20T08:48:31.781Z,4.40
2022-11-20T08:51:00.513Z,4.40
2022-11-20T08:53:28.669Z,4.40
2022-11-20T08:55:56.635Z,4.40
2022-11-20T08:58:24.585Z,4.40
2022-11-20T09:00:52.600Z,4.40
2022-11-20T09:03:21.969Z,4.40
2022-11-20T09:05:49.926Z,4.50
2022-11-20T09:08:17.797Z,4.50
2022-11-20T09:10:45.661Z,4.50
2022-11-20T09:13:13.677Z,4.50
2022-11-20T09:15:41.545Z,4.60
2022-11-20T09:18:09.401Z,4.60
2022-11-20T09:20:38.744Z,4.60
2022-11-20T09:23:06.863Z,4.60
2022-11-20T09:25:34.815Z,4.70
2022-11-20T09:28:02.742Z,4.70
2022-11-20T09:30:31.846Z,4.80
2022-11-20T09:32:59.864Z,4.80
2022-11-20T09:35:27.806Z,4.80
2022-11-20T09:37:57.080Z,4.80
2022-11-20T09:40:27.361Z,4.80
2022-11-20T09:43:00.762Z,4.80
2022-11-20T09:45:41.256Z,4.80
2022-11-20T09:48:31.317Z,4.90
2022-11-20T09:51:06.389Z,4.90
2022-11-20T09:53:48.302Z,4.90
2022-11-20T09:56:19.851Z,5.00
2022-11-20T09:58:53.745Z,5.00
2022-11-20T10:01:24.396Z,4.90
2022-11-20T10:03:59.326Z,4.90
2022-11-20T10:06:32.604Z,4.90
2022-11-20T10:09:13.920Z,4.90
2022-11-20T10:11:53.759Z,4.90
2022-11-20T10:14:31.968Z,5.00
2022-11-20T10:17:10.301Z,5.10
2022-11-20T10:19:50.323Z,5.20
2022-11-20T10:22:33.155Z,5.40
2022-11-20T10:25:13.302Z,5.40
2022-11-20T10:28:04.699Z,5.40
2022-11-20T10:30:36.996Z,5.40
2022-11-20T10:33:13.656Z,5.50
2022-11-20T10:35:45.176Z,5.40
2022-11-20T10:38:18.923Z,5.30
2022-11-20T10:40:51.136Z,5.20
2022-11-20T10:43:23.252Z,5.20
2022-11-20T10:45:56.193Z,5.30
2022-11-20T10:48:26.706Z,5.40
2022-11-20T10:51:10.177Z,5.40
2022-11-20T10:53:59.824Z,5.40
2022-11-20T10:56:36.821Z,5.50
2022-11-20T10:59:29.617Z,5.50
2022-11-20T11:01:57.686Z,5.80
2022-11-20T11:04:38.897Z,5.80
2022-11-20T11:07:14.703Z,6.10
2022-11-20T11:09:46.045Z,6.20
2022-11-20T11:12:15.983Z,6.50
2022-11-20T11:14:46.131Z,6.80
2022-11-20T11:17:27.996Z,7.20
2022-11-20T11:20:00.488Z,7.30
2022-11-20T11:22:30.960Z,7.30
2022-11-20T11:24:59.043Z,7.30
2022-11-20T11:27:28.427Z,7.40
2022-11-20T11:30:13.240Z,7.30
2022-11-20T11:32:41.207Z,7.40
2022-11-20T11:35:25.178Z,7.50
2022-11-20T11:37:55.727Z,7.50
2022-11-20T11:40:27.900Z,7.60
2022-11-20T11:43:01.658Z,7.60
2022-11-20T11:45:29.037Z,7.60
2022-11-20T11:48:00.210Z,7.70
2022-11-20T11:50:29.324Z,7.90
2022-11-20T11:53:04.189Z,8.10
2022-11-20T11:55:36.954Z,8.10
2022-11-20T11:58:14.271Z,8.30
2022-11-20T12:00:47.286Z,8.50
2022-11-20T12:03:19.892Z,8.60
2022-11-20T12:05:51.471Z,8.60
2022-11-20T12:08:25.302Z,8.70
2022-11-20T12:10:59.593Z,8.60
2022-11-20T12:13:39.136Z,8.60
2022-11-20T12:16:07.687Z,8.60
2022-11-20T12:18:35.628Z,8.50
2022-11-20T12:21:25.428Z,8.60
2022-11-20T12:24:23.500Z,8.70
2022-11-20T12:27:04.332Z,8.70
2022-11-20T12:29:43.395Z,8.80
2022-11-20T12:32:38.413Z,8.90
2022-11-20T12:35:15.947Z,8.90
2022-11-20T12:37:54.616Z,8.90
2022-11-20T12:40:37.595Z,9.00
2022-11-20T12:43:35.462Z,8.90
2022-11-20T12:46:17.994Z,8.90
2022-11-20T12:48:59.375Z,8.90
2022-11-20T12:51:39.118Z,8.90
2022-11-20T12:54:26.974Z,8.90
2022-11-20T12:57:04.209Z,8.90
2022-11-20T12:59:51.835Z,9.00
2022-11-20T13:02:28.710Z,9.00
2022-11-20T13:05:23.718Z,9.10
2022-11-20T13:07:54.961Z,9.10
2022-11-20T13:10:31.971Z,9.30
2022-11-20T13:13:05.796Z,9.30
2022-11-20T13:15:46.624Z,9.30
2022-11-20T13:18:16.488Z,9.40
2022-11-20T13:20:45.568Z,9.50
2022-11-20T13:23:13.705Z,9.60
2022-11-20T13:25:42.171Z,9.60
2022-11-20T13:28:31.545Z,9.60
2022-11-20T13:31:00.740Z,9.60
2022-11-20T13:33:33.662Z,9.70
2022-11-20T13:36:03.719Z,9.80
2022-11-20T13:38:44.835Z,9.80
2022-11-20T13:41:32.361Z,9.90
2022-11-20T13:44:09.117Z,9.80
2022-11-20T13:46:39.324Z,9.70
2022-11-20T13:49:23.445Z,9.80
2022-11-20T13:51:53.101Z,9.70
2022-11-20T13:55:04.006Z,9.90
2022-11-20T13:57:55.425Z,10.00
2022-11-20T14:00:25.108Z,9.90
2022-11-20T14:03:04.517Z,9.90
2022-11-20T14:05:38.325Z,9.90
2022-11-20T14:08:08.407Z,9.80
2022-11-20T14:10:40.057Z,9.70
2022-11-20T14:13:19.637Z,9.70
2022-11-20T14:15:47.692Z,9.60
2022-11-20T14:18:20.968Z,9.50
2022-11-20T14:20:50.560Z,9.50
2022-11-20T14:23:30.057Z,9.50
2022-11-20T14:25:58.798Z,9.40
2022-11-20T14:28:29.036Z,9.40
2022-11-20T14:30:58.162Z,9.40
2022-11-20T14:33:28.416Z,9.30
2022-11-20T14:35:59.851Z,9.30
2022-11-20T14:38:30.510Z,9.30
2022-11-20T14:41:08.894Z,9.40
2022-11-20T14:43:38.672Z,9.30
2022-11-20T14:46:08.186Z,9.30
2022-11-20T14:48:40.165Z,9.30
2022-11-20T14:51:11.387Z,9.30
2022-11-20T14:53:39.614Z,9.30
2022-11-20T14:56:07.556Z,9.20
2022-11-20T14:58:36.102Z,9.20
2022-11-20T15:01:05.814Z,9.20
2022-11-20T15:03:35.011Z,9.10
2022-11-20T15:06:03.073Z,9.10
2022-11-20T15:08:32.470Z,9.10
2022-11-20T15:11:00.620Z,9.00
2022-11-20T15:13:33.562Z,9.00
2022-11-20T15:16:02.698Z,8.90
2022-11-20T15:18:34.152Z,8.90
2022-11-20T15:21:05.229Z,8.80
2022-11-20T15:23:34.489Z,8.80
2022-11-20T15:26:02.420Z,8.70
2022-11-20T15:28:33.363Z,8.70
2022-11-20T15:31:03.293Z,8.60
2022-11-20T15:33:31.313Z,8.60
2022-11-20T15:35:59.568Z,8.70
2022-11-20T15:38:27.528Z,8.60
2022-11-20T15:40:56.727Z,8.60
2022-11-20T15:43:24.805Z,8.60
2022-11-20T15:45:55.817Z,8.60
2022-11-20T15:48:26.659Z,8.60
2022-11-20T15:50:58.967Z,8.50
2022-11-20T15:53:26.927Z,8.50
2022-11-20T15:55:56.372Z,8.50
2022-11-20T15:58:25.191Z,8.50
2022-11-20T16:00:53.157Z,8.40
2022-11-20T16:03:21.123Z,8.40
2022-11-20T16:05:49.113Z,8.40
2022-11-20T16:08:17.297Z,8.40
2022-11-20T16:10:45.248Z,8.40
2022-11-20T16:13:36.990Z,8.30
2022-11-20T16:16:07.499Z,8.30
2022-11-20T16:18:35.773Z,8.30
2022-11-20T16:21:04.388Z,8.30
2022-11-20T16:23:32.456Z,8.40
2022-11-20T16:26:00.415Z,8.30
2022-11-20T16:28:30.085Z,8.30
2022-11-20T16:30:58.249Z,8.20
2022-11-20T16:33:26.238Z,8.20
2022-11-20T16:35:54.190Z,8.20
2022-11-20T16:38:22.065Z,8.20
2022-11-20T16:40:49.983Z,8.30
2022-11-20T16:43:17.877Z,8.40
2022-11-20T16:45:47.714Z,8.40
2022-11-20T16:48:17.841Z,8.40
2022-11-20T16:50:50.615Z,8.40
2022-11-20T16:53:19.055Z,8.40
2022-11-20T16:55:47.321Z,8.40
2022-11-20T16:58:15.316Z,8.40
2022-11-20T17:00:48.316Z,8.40
2022-11-20T17:03:21.065Z,8.30
2022-11-20T17:05:49.080Z,8.30
2022-11-20T17:08:16.958Z,8.20
2022-11-20T17:10:44.877Z,8.20
2022-11-20T17:13:12.761Z,8.20
2022-11-20T17:15:40.696Z,8.10
2022-11-20T17:18:08.620Z,8.10
2022-11-20T17:20:37.967Z,8.10
2022-11-20T17:23:05.845Z,8.10
2022-11-20T17:25:35.027Z,8.00
2022-11-20T17:28:02.917Z,8.00
2022-11-20T17:30:31.232Z,8.00
2022-11-20T17:32:59.149Z,8.00
2022-11-20T17:35:27.060Z,7.90
2022-11-20T17:37:56.280Z,7.90
2022-11-20T17:40:27.366Z,7.90
2022-11-20T17:42:56.116Z,7.90
2022-11-20T17:45:24.155Z,7.90
2022-11-20T17:47:52.112Z,7.90
2022-11-20T17:50:20.296Z,7.90
2022-11-20T17:52:48.431Z,7.90
2022-11-20T17:55:18.237Z,7.90
2022-11-20T17:57:54.081Z,7.90
2022-11-20T18:00:22.475Z,7.90
2022-11-20T18:02:50.503Z,7.90
2022-11-20T18:05:19.922Z,8.00
2022-11-20T18:07:47.943Z,8.00
2022-11-20T18:10:17.325Z,7.90
2022-11-20T18:12:45.507Z,7.90
2022-11-20T18:15:13.388Z,7.90
2022-11-20T18:17:41.301Z,7.90
2022-11-20T18:22:58.672Z,7.80
2022-11-20T18:25:27.925Z,7.80
2022-11-20T18:27:56.335Z,7.80
2022-11-20T18:30:24.282Z,7.80
2022-11-20T18:32:52.185Z,7.70
2022-11-20T18:35:20.112Z,7.80
2022-11-20T18:37:48.071Z,7.70
2022-11-20T18:40:16.130Z,7.70
2022-11-20T18:43:03.036Z,7.60
2022-11-20T18:45:30.992Z,7.50
2022-11-20T18:47:58.902Z,7.50
2022-11-20T18:50:26.807Z,7.50
2022-11-20T18:52:54.663Z,7.50
2022-11-20T18:55:25.029Z,7.50
2022-11-20T18:57:55.180Z,7.50
2022-11-20T19:00:23.634Z,7.40
2022-11-20T19:02:54.707Z,7.40
2022-11-20T19:05:22.892Z,7.40
2022-11-20T19:07:50.941Z,7.40
2022-11-20T19:10:20.273Z,7.30
2022-11-20T19:12:48.562Z,7.30
2022-11-20T19:15:17.840Z,7.30
2022-11-20T19:17:45.752Z,7.20
2022-11-20T19:20:13.992Z,7.20
2022-11-20T19:22:42.124Z,7.20
2022-11-20T19:25:10.489Z,7.10
2022-11-20T19:27:38.662Z,7.10
2022-11-20T19:30:07.686Z,7.10
2022-11-20T19:32:36.910Z,7.10
2022-11-20T19:35:05.339Z,7.10
2022-11-20T19:37:34.528Z,7.10
2022-11-20T19:40:04.481Z,7.10
2022-11-20T19:42:32.856Z,7.10
2022-11-20T19:45:00.777Z,7.10
2022-11-20T19:47:52.586Z,7.10
2022-11-20T19:50:18.257Z,7.10
2022-11-20T19:52:46.158Z,7.10
2022-11-20T19:55:14.354Z,7.10
2022-11-20T19:57:42.308Z,7.10
2022-11-20T20:00:12.342Z,7.00
2022-11-20T20:02:40.766Z,7.10
2022-11-20T20:05:09.072Z,7.00
2022-11-20T20:07:40.086Z,7.00
2022-11-20T20:10:09.164Z,7.00
2022-11-20T20:12:39.187Z,7.00
2022-11-20T20:15:08.417Z,7.00
2022-11-20T20:17:36.339Z,6.90
2022-11-20T20:20:04.701Z,6.80
2022-11-20T20:22:32.589Z,6.80
2022-11-20T20:25:01.953Z,6.90
2022-11-20T20:27:31.164Z,7.00
2022-11-20T20:29:59.062Z,7.00
2022-11-20T20:32:26.953Z,7.00
2022-11-20T20:34:54.937Z,7.00
2022-11-20T20:37:22.892Z,7.00
2022-11-20T20:39:50.925Z,6.90
2022-11-20T20:42:20.190Z,6.80
2022-11-20T20:45:05.244Z,6.80
2022-11-20T20:47:35.446Z,6.80
2022-11-20T20:50:03.726Z,6.80
2022-11-20T20:52:31.754Z,6.70
2022-11-20T20:54:59.767Z,6.60
2022-11-20T20:57:29.398Z,6.70
2022-11-20T20:59:57.325Z,6.70
2022-11-20T21:02:25.268Z,6.70
2022-11-20T21:04:53.759Z,6.70
2022-11-20T21:07:21.954Z,6.70
2022-11-20T21:09:49.834Z,6.70
2022-11-20T21:12:17.806Z,6.70
2022-11-20T21:14:47.032Z,6.80
2022-11-20T21:17:15.491Z,6.80
2022-11-20T21:19:43.662Z,6.90
2022-11-20T21:22:10.544Z,6.90
2022-11-20T21:24:38.447Z,7.00
2022-11-20T21:27:07.324Z,6.90
2022-11-20T21:29:35.304Z,7.00
2022-11-20T21:32:04.558Z,7.10
2022-11-20T21:34:32.426Z,7.00
2022-11-20T21:37:00.293Z,7.00
2022-11-20T21:39:30.240Z,7.00
2022-11-20T21:41:58.305Z,7.00
2022-11-20T21:44:33.326Z,7.10
2022-11-20T21:47:01.345Z,7.10
2022-11-20T21:49:30.635Z,7.10
2022-11-20T21:51:58.637Z,7.10
2022-11-20T21:54:27.023Z,7.20
2022-11-20T21:56:55.019Z,7.20
2022-11-20T21:59:23.425Z,7.20
2022-11-20T22:01:51.518Z,7.30
2022-11-20T22:04:19.989Z,7.30
2022-11-20T22:06:49.471Z,7.40
2022-11-20T22:09:17.673Z,7.50
2022-11-20T22:11:45.600Z,7.50
2022-11-20T22:14:21.667Z,7.50
2022-11-20T22:16:50.548Z,7.50
2022-11-20T22:19:20.013Z,7.60
2022-11-20T22:21:50.623Z,7.70
2022-11-20T22:24:20.220Z,7.70
2022-11-20T22:26:48.427Z,7.70
2022-11-20T22:29:17.250Z,7.80
2022-11-20T22:31:45.208Z,7.80
2022-11-20T22:34:14.125Z,7.90
2022-11-20T22:36:42.680Z,7.80
2022-11-20T22:39:11.962Z,7.90
2022-11-20T22:41:39.917Z,7.90
2022-11-20T22:44:09.050Z,7.90
2022-11-20T22:46:38.705Z,7.90
2022-11-20T22:49:09.390Z,7.80
2022-11-20T22:51:38.944Z,7.90
2022-11-20T22:54:06.944Z,7.90
2022-11-20T22:56:36.190Z,7.90
2022-11-20T22:59:04.527Z,7.90
2022-11-20T23:01:34.711Z,7.90
2022-11-20T23:04:04.556Z,8.00
2022-11-20T23:06:34.315Z,8.00
2022-11-20T23:09:02.710Z,8.00
2022-11-20T23:11:32.155Z,8.00
2022-11-20T23:14:03.150Z,8.00
2022-11-20T23:16:32.444Z,8.10
2022-11-20T23:19:02.185Z,8.10
2022-11-20T23:21:30.195Z,8.10
2022-11-20T23:23:59.282Z,8.10
2022-11-20T23:26:29.325Z,8.10
2022-11-20T23:28:58.811Z,8.20
2022-11-20T23:31:30.609Z,8.10
2022-11-20T23:33:59.430Z,8.10
2022-11-20T23:36:27.626Z,8.10
2022-11-20T23:38:55.527Z,8.10
2022-11-20T23:41:23.451Z,8.10
2022-11-20T23:43:51.319Z,8.10
2022-11-20T23:46:19.236Z,8.20
2022-11-20T23:48:48.439Z,8.10
2022-11-20T23:51:16.710Z,8.10
2022-11-20T23:53:44.583Z,8.10
2022-11-20T23:56:14.263Z,8.10
2022-11-20T23:58:42.691Z,8.10
